Endicott, New York
Current Conditions -  °F | °C
As of 5:53 AM on Saturday 22 Nov 2014 (Local Time) from KBGM Reporting Station
Clear Clear  
Wind Chill: -14°   Ceiling: Unl
Heat Index: -8°   Visibility: 10mi
Dew Point: -13°   Wind: 7mph
Humidity: 71%   Direction: 200°SSW
Pressure: 30.31"   Gusts: NA
Location:  42.1°N, 76.05°W
Report Text: KBGM 221053Z 20006KT 10SM CLR M08/M13 A3031 RMK AO2 SLP291 T10831128
Loading
Personal Weather Stations






























Interactive Weather Map New forecast layout! Learn more

10-Day Weather Forecast

Advertisements
Track Severe Weather on mobile